sensor_id;sensor_type;location;lat;lon;timestamp;P1;durP1;ratioP1;P2;durP2;ratioP2
773;SDS011;370;48.810;9.150;2023-07-08T00:02:09;6.37;;;3.33;;
773;SDS011;370;48.810;9.150;2023-07-08T00:04:36;6.90;;;3.37;;
773;SDS011;370;48.810;9.150;2023-07-08T00:07:05;9.43;;;4.27;;
773;SDS011;370;48.810;9.150;2023-07-08T00:09:35;9.50;;;3.40;;
773;SDS011;370;48.810;9.150;2023-07-08T00:12:04;11.47;;;4.07;;
773;SDS011;370;48.810;9.150;2023-07-08T00:14:34;9.90;;;4.03;;
773;SDS011;370;48.810;9.150;2023-07-08T00:20:27;6.87;;;3.63;;
773;SDS011;370;48.810;9.150;2023-07-08T00:22:59;6.40;;;3.60;;
773;SDS011;370;48.810;9.150;2023-07-08T00:25:26;13.07;;;4.73;;
773;SDS011;370;48.810;9.150;2023-07-08T00:27:53;9.70;;;3.97;;
773;SDS011;370;48.810;9.150;2023-07-08T00:30:21;13.63;;;4.80;;
773;SDS011;370;48.810;9.150;2023-07-08T00:32:49;9.53;;;3.67;;
773;SDS011;370;48.810;9.150;2023-07-08T00:35:19;6.90;;;3.40;;
773;SDS011;370;48.810;9.150;2023-07-08T00:37:47;12.77;;;4.37;;
773;SDS011;370;48.810;9.150;2023-07-08T00:40:16;10.60;;;3.83;;
773;SDS011;370;48.810;9.150;2023-07-08T00:42:44;8.00;;;2.97;;
773;SDS011;370;48.810;9.150;2023-07-08T00:45:15;6.97;;;3.50;;
773;SDS011;370;48.810;9.150;2023-07-08T00:47:50;8.13;;;3.73;;
773;SDS011;370;48.810;9.150;2023-07-08T00:50:18;9.70;;;3.43;;
773;SDS011;370;48.810;9.150;2023-07-08T00:52:45;10.77;;;3.80;;
773;SDS011;370;48.810;9.150;2023-07-08T00:55:12;9.53;;;3.97;;
773;SDS011;370;48.810;9.150;2023-07-08T00:57:42;13.23;;;3.70;;
773;SDS011;370;48.810;9.150;2023-07-08T01:00:12;10.80;;;3.50;;
773;SDS011;370;48.810;9.150;2023-07-08T01:02:42;8.23;;;3.37;;
773;SDS011;370;48.810;9.150;2023-07-08T01:05:14;7.63;;;3.50;;
773;SDS011;370;48.810;9.150;2023-07-08T01:07:44;8.47;;;3.30;;
773;SDS011;370;48.810;9.150;2023-07-08T01:10:19;7.10;;;3.23;;
773;SDS011;370;48.810;9.150;2023-07-08T01:12:52;12.00;;;4.17;;
773;SDS011;370;48.810;9.150;2023-07-08T01:15:23;11.33;;;4.43;;
773;SDS011;370;48.810;9.150;2023-07-08T01:17:56;7.17;;;3.20;;
773;SDS011;370;48.810;9.150;2023-07-08T01:20:23;7.40;;;3.87;;
773;SDS011;370;48.810;9.150;2023-07-08T01:22:51;9.30;;;3.90;;
773;SDS011;370;48.810;9.150;2023-07-08T01:25:18;14.20;;;3.53;;
773;SDS011;370;48.810;9.150;2023-07-08T01:27:48;8.73;;;3.50;;
773;SDS011;370;48.810;9.150;2023-07-08T01:30:18;8.90;;;3.60;;
773;SDS011;370;48.810;9.150;2023-07-08T01:32:45;6.17;;;3.03;;
773;SDS011;370;48.810;9.150;2023-07-08T01:35:14;10.63;;;3.03;;
773;SDS011;370;48.810;9.150;2023-07-08T01:37:43;11.00;;;3.60;;
773;SDS011;370;48.810;9.150;2023-07-08T01:40:16;8.30;;;3.23;;
773;SDS011;370;48.810;9.150;2023-07-08T01:42:53;9.00;;;3.60;;
773;SDS011;370;48.810;9.150;2023-07-08T01:45:21;5.00;;;2.23;;
773;SDS011;370;48.810;9.150;2023-07-08T01:47:50;7.93;;;3.60;;
773;SDS011;370;48.810;9.150;2023-07-08T01:50:19;9.40;;;3.83;;
773;SDS011;370;48.810;9.150;2023-07-08T01:52:48;11.00;;;4.13;;
773;SDS011;370;48.810;9.150;2023-07-08T01:55:21;8.90;;;4.00;;
773;SDS011;370;48.810;9.150;2023-07-08T01:57:50;8.80;;;3.40;;
773;SDS011;370;48.810;9.150;2023-07-08T02:00:17;15.60;;;4.63;;
773;SDS011;370;48.810;9.150;2023-07-08T02:02:44;6.07;;;2.67;;
773;SDS011;370;48.810;9.150;2023-07-08T02:05:11;8.30;;;3.60;;
773;SDS011;370;48.810;9.150;2023-07-08T02:07:38;8.27;;;3.83;;
773;SDS011;370;48.810;9.150;2023-07-08T02:10:05;11.93;;;4.13;;
773;SDS011;370;48.810;9.150;2023-07-08T02:12:34;10.93;;;3.60;;
773;SDS011;370;48.810;9.150;2023-07-08T02:15:00;8.17;;;3.03;;
773;SDS011;370;48.810;9.150;2023-07-08T02:17:28;11.20;;;3.43;;
773;SDS011;370;48.810;9.150;2023-07-08T02:19:54;15.27;;;4.30;;
773;SDS011;370;48.810;9.150;2023-07-08T02:22:21;19.23;;;4.17;;
773;SDS011;370;48.810;9.150;2023-07-08T02:24:48;11.50;;;2.87;;
773;SDS011;370;48.810;9.150;2023-07-08T02:27:15;8.80;;;3.40;;
773;SDS011;370;48.810;9.150;2023-07-08T02:29:43;9.47;;;4.10;;
773;SDS011;370;48.810;9.150;2023-07-08T02:32:09;8.63;;;3.50;;
773;SDS011;370;48.810;9.150;2023-07-08T02:34:36;6.97;;;3.20;;
773;SDS011;370;48.810;9.150;2023-07-08T02:37:03;10.33;;;3.80;;
773;SDS011;370;48.810;9.150;2023-07-08T02:39:30;10.40;;;3.93;;
773;SDS011;370;48.810;9.150;2023-07-08T02:41:57;9.40;;;3.37;;
773;SDS011;370;48.810;9.150;2023-07-08T02:44:23;6.60;;;3.33;;
773;SDS011;370;48.810;9.150;2023-07-08T02:46:52;9.50;;;3.47;;
773;SDS011;370;48.810;9.150;2023-07-08T02:49:19;9.53;;;3.73;;
773;SDS011;370;48.810;9.150;2023-07-08T02:51:46;10.57;;;3.13;;
773;SDS011;370;48.810;9.150;2023-07-08T02:54:13;8.23;;;3.13;;
773;SDS011;370;48.810;9.150;2023-07-08T02:56:39;7.30;;;2.73;;
773;SDS011;370;48.810;9.150;2023-07-08T02:59:06;8.30;;;2.60;;
773;SDS011;370;48.810;9.150;2023-07-08T03:01:33;6.50;;;2.93;;
773;SDS011;370;48.810;9.150;2023-07-08T03:04:07;7.53;;;3.23;;
773;SDS011;370;48.810;9.150;2023-07-08T03:06:37;6.83;;;3.40;;
773;SDS011;370;48.810;9.150;2023-07-08T03:09:05;12.90;;;4.00;;
773;SDS011;370;48.810;9.150;2023-07-08T03:11:31;6.40;;;3.17;;
773;SDS011;370;48.810;9.150;2023-07-08T03:13:58;14.10;;;3.47;;
773;SDS011;370;48.810;9.150;2023-07-08T03:16:25;7.27;;;3.50;;
773;SDS011;370;48.810;9.150;2023-07-08T03:18:51;13.87;;;3.63;;
773;SDS011;370;48.810;9.150;2023-07-08T03:21:19;10.87;;;3.50;;
773;SDS011;370;48.810;9.150;2023-07-08T03:23:47;6.77;;;3.13;;
773;SDS011;370;48.810;9.150;2023-07-08T03:26:14;7.17;;;3.10;;
773;SDS011;370;48.810;9.150;2023-07-08T03:28:43;8.57;;;3.40;;
773;SDS011;370;48.810;9.150;2023-07-08T03:31:10;17.00;;;4.10;;
773;SDS011;370;48.810;9.150;2023-07-08T03:33:37;11.13;;;3.60;;
773;SDS011;370;48.810;9.150;2023-07-08T03:36:07;12.17;;;3.83;;
773;SDS011;370;48.810;9.150;2023-07-08T03:38:39;5.20;;;2.80;;
773;SDS011;370;48.810;9.150;2023-07-08T03:41:06;7.33;;;3.43;;
773;SDS011;370;48.810;9.150;2023-07-08T03:43:32;8.13;;;3.30;;
773;SDS011;370;48.810;9.150;2023-07-08T03:45:59;6.63;;;3.13;;
773;SDS011;370;48.810;9.150;2023-07-08T03:48:26;8.47;;;3.20;;
773;SDS011;370;48.810;9.150;2023-07-08T03:50:52;9.40;;;3.70;;
773;SDS011;370;48.810;9.150;2023-07-08T03:53:19;6.97;;;2.83;;
773;SDS011;370;48.810;9.150;2023-07-08T03:55:47;8.30;;;3.70;;
773;SDS011;370;48.810;9.150;2023-07-08T03:58:14;8.57;;;3.33;;
773;SDS011;370;48.810;9.150;2023-07-08T04:00:40;7.87;;;3.43;;
773;SDS011;370;48.810;9.150;2023-07-08T04:03:08;6.67;;;3.80;;
773;SDS011;370;48.810;9.150;2023-07-08T04:05:37;10.13;;;3.70;;
773;SDS011;370;48.810;9.150;2023-07-08T04:08:04;7.33;;;3.30;;
773;SDS011;370;48.810;9.150;2023-07-08T04:10:30;10.90;;;3.73;;
773;SDS011;370;48.810;9.150;2023-07-08T04:12:58;7.73;;;3.73;;
773;SDS011;370;48.810;9.150;2023-07-08T04:15:25;7.70;;;3.53;;
773;SDS011;370;48.810;9.150;2023-07-08T04:17:53;6.17;;;2.93;;
773;SDS011;370;48.810;9.150;2023-07-08T04:20:21;8.73;;;3.77;;
773;SDS011;370;48.810;9.150;2023-07-08T04:22:48;5.70;;;3.00;;
773;SDS011;370;48.810;9.150;2023-07-08T04:25:14;7.90;;;3.00;;
773;SDS011;370;48.810;9.150;2023-07-08T04:27:42;13.83;;;3.77;;
773;SDS011;370;48.810;9.150;2023-07-08T04:30:10;4.60;;;2.97;;
773;SDS011;370;48.810;9.150;2023-07-08T04:32:46;6.10;;;2.90;;
773;SDS011;370;48.810;9.150;2023-07-08T04:35:12;7.90;;;3.30;;
773;SDS011;370;48.810;9.150;2023-07-08T04:37:39;13.00;;;3.13;;
773;SDS011;370;48.810;9.150;2023-07-08T04:40:07;8.17;;;3.80;;
773;SDS011;370;48.810;9.150;2023-07-08T04:42:44;9.47;;;3.83;;
773;SDS011;370;48.810;9.150;2023-07-08T04:45:13;6.47;;;3.67;;
773;SDS011;370;48.810;9.150;2023-07-08T04:47:41;10.40;;;3.20;;
773;SDS011;370;48.810;9.150;2023-07-08T04:50:08;7.03;;;3.30;;
773;SDS011;370;48.810;9.150;2023-07-08T04:52:36;7.27;;;3.60;;
773;SDS011;370;48.810;9.150;2023-07-08T04:55:03;10.43;;;3.83;;
773;SDS011;370;48.810;9.150;2023-07-08T04:57:30;5.33;;;3.10;;
773;SDS011;370;48.810;9.150;2023-07-08T04:59:56;7.50;;;3.47;;
773;SDS011;370;48.810;9.150;2023-07-08T05:02:24;8.37;;;3.73;;
773;SDS011;370;48.810;9.150;2023-07-08T05:04:51;5.77;;;2.90;;
773;SDS011;370;48.810;9.150;2023-07-08T05:07:18;7.33;;;3.10;;
773;SDS011;370;48.810;9.150;2023-07-08T05:09:44;11.00;;;4.57;;
773;SDS011;370;48.810;9.150;2023-07-08T05:12:11;9.93;;;4.20;;
773;SDS011;370;48.810;9.150;2023-07-08T05:14:38;14.90;;;3.97;;
773;SDS011;370;48.810;9.150;2023-07-08T05:17:05;10.97;;;3.90;;
773;SDS011;370;48.810;9.150;2023-07-08T05:19:33;8.63;;;4.60;;
773;SDS011;370;48.810;9.150;2023-07-08T05:21:59;11.10;;;3.93;;
773;SDS011;370;48.810;9.150;2023-07-08T05:24:26;7.67;;;3.60;;
773;SDS011;370;48.810;9.150;2023-07-08T05:26:53;9.73;;;4.10;;
773;SDS011;370;48.810;9.150;2023-07-08T05:29:20;9.70;;;3.80;;
773;SDS011;370;48.810;9.150;2023-07-08T05:31:46;11.10;;;4.27;;
773;SDS011;370;48.810;9.150;2023-07-08T05:34:13;8.87;;;4.20;;
773;SDS011;370;48.810;9.150;2023-07-08T05:36:42;9.53;;;4.30;;
773;SDS011;370;48.810;9.150;2023-07-08T05:39:09;11.20;;;4.77;;
773;SDS011;370;48.810;9.150;2023-07-08T05:41:35;16.83;;;4.10;;
773;SDS011;370;48.810;9.150;2023-07-08T05:44:02;6.73;;;3.63;;
773;SDS011;370;48.810;9.150;2023-07-08T05:46:29;7.40;;;3.30;;
773;SDS011;370;48.810;9.150;2023-07-08T05:48:56;5.80;;;3.53;;
773;SDS011;370;48.810;9.150;2023-07-08T05:51:23;7.47;;;3.93;;
773;SDS011;370;48.810;9.150;2023-07-08T05:53:51;4.90;;;3.10;;
773;SDS011;370;48.810;9.150;2023-07-08T05:56:17;7.60;;;3.87;;
773;SDS011;370;48.810;9.150;2023-07-08T05:58:44;11.50;;;3.80;;
773;SDS011;370;48.810;9.150;2023-07-08T06:01:11;8.07;;;3.50;;
773;SDS011;370;48.810;9.150;2023-07-08T06:03:37;12.13;;;4.60;;
773;SDS011;370;48.810;9.150;2023-07-08T06:06:04;6.37;;;3.70;;
773;SDS011;370;48.810;9.150;2023-07-08T06:08:31;11.60;;;4.40;;
773;SDS011;370;48.810;9.150;2023-07-08T06:10:59;7.80;;;3.57;;
773;SDS011;370;48.810;9.150;2023-07-08T06:13:26;11.53;;;4.00;;
773;SDS011;370;48.810;9.150;2023-07-08T06:15:52;7.37;;;3.60;;
773;SDS011;370;48.810;9.150;2023-07-08T06:18:19;7.57;;;3.93;;
773;SDS011;370;48.810;9.150;2023-07-08T06:20:52;6.73;;;3.47;;
773;SDS011;370;48.810;9.150;2023-07-08T06:23:19;8.83;;;4.23;;
773;SDS011;370;48.810;9.150;2023-07-08T06:25:46;12.07;;;4.07;;
773;SDS011;370;48.810;9.150;2023-07-08T06:28:14;9.27;;;3.70;;
773;SDS011;370;48.810;9.150;2023-07-08T06:30:41;7.63;;;3.50;;
773;SDS011;370;48.810;9.150;2023-07-08T06:33:07;8.13;;;3.87;;
773;SDS011;370;48.810;9.150;2023-07-08T06:35:36;11.00;;;3.80;;
773;SDS011;370;48.810;9.150;2023-07-08T06:38:02;8.03;;;3.90;;
773;SDS011;370;48.810;9.150;2023-07-08T06:40:29;8.30;;;4.17;;
773;SDS011;370;48.810;9.150;2023-07-08T06:42:56;10.23;;;3.70;;
773;SDS011;370;48.810;9.150;2023-07-08T06:45:24;7.47;;;3.37;;
773;SDS011;370;48.810;9.150;2023-07-08T06:47:51;9.63;;;3.67;;
773;SDS011;370;48.810;9.150;2023-07-08T06:50:17;7.93;;;3.30;;
773;SDS011;370;48.810;9.150;2023-07-08T06:52:44;6.13;;;2.80;;
773;SDS011;370;48.810;9.150;2023-07-08T06:55:11;6.20;;;2.90;;
773;SDS011;370;48.810;9.150;2023-07-08T06:57:38;5.10;;;2.80;;
773;SDS011;370;48.810;9.150;2023-07-08T07:00:05;4.80;;;2.77;;
773;SDS011;370;48.810;9.150;2023-07-08T07:02:34;4.90;;;3.03;;
773;SDS011;370;48.810;9.150;2023-07-08T07:05:01;4.53;;;2.50;;
773;SDS011;370;48.810;9.150;2023-07-08T07:07:28;6.10;;;2.67;;
773;SDS011;370;48.810;9.150;2023-07-08T07:09:55;7.93;;;2.60;;
773;SDS011;370;48.810;9.150;2023-07-08T07:12:23;6.53;;;3.43;;
773;SDS011;370;48.810;9.150;2023-07-08T07:14:50;3.50;;;2.40;;
773;SDS011;370;48.810;9.150;2023-07-08T07:17:18;5.77;;;2.90;;
773;SDS011;370;48.810;9.150;2023-07-08T07:19:46;4.57;;;2.80;;
773;SDS011;370;48.810;9.150;2023-07-08T07:22:13;7.03;;;3.20;;
773;SDS011;370;48.810;9.150;2023-07-08T07:28:01;4.77;;;2.90;;
773;SDS011;370;48.810;9.150;2023-07-08T07:30:29;3.77;;;2.40;;
773;SDS011;370;48.810;9.150;2023-07-08T07:32:58;4.67;;;2.33;;
773;SDS011;370;48.810;9.150;2023-07-08T07:35:26;9.50;;;2.97;;
773;SDS011;370;48.810;9.150;2023-07-08T07:37:53;5.40;;;3.10;;
773;SDS011;370;48.810;9.150;2023-07-08T07:40:20;6.67;;;2.70;;
773;SDS011;370;48.810;9.150;2023-07-08T07:42:46;3.77;;;2.93;;
773;SDS011;370;48.810;9.150;2023-07-08T07:45:13;4.13;;;2.57;;
773;SDS011;370;48.810;9.150;2023-07-08T07:47:40;4.20;;;2.53;;
773;SDS011;370;48.810;9.150;2023-07-08T07:50:07;6.87;;;2.60;;
773;SDS011;370;48.810;9.150;2023-07-08T07:52:36;6.20;;;2.67;;
773;SDS011;370;48.810;9.150;2023-07-08T07:55:03;7.00;;;2.77;;
773;SDS011;370;48.810;9.150;2023-07-08T07:57:30;3.50;;;2.17;;
773;SDS011;370;48.810;9.150;2023-07-08T07:59:57;4.87;;;3.00;;
773;SDS011;370;48.810;9.150;2023-07-08T08:02:24;8.07;;;3.00;;
773;SDS011;370;48.810;9.150;2023-07-08T08:04:51;8.40;;;2.60;;
773;SDS011;370;48.810;9.150;2023-07-08T08:07:17;5.07;;;3.00;;
773;SDS011;370;48.810;9.150;2023-07-08T08:09:45;6.13;;;3.37;;
773;SDS011;370;48.810;9.150;2023-07-08T08:12:12;7.07;;;3.40;;
773;SDS011;370;48.810;9.150;2023-07-08T08:18:01;4.87;;;3.13;;
773;SDS011;370;48.810;9.150;2023-07-08T08:20:28;4.40;;;2.90;;
773;SDS011;370;48.810;9.150;2023-07-08T08:22:55;4.70;;;2.80;;
773;SDS011;370;48.810;9.150;2023-07-08T08:25:23;6.93;;;3.20;;
773;SDS011;370;48.810;9.150;2023-07-08T08:27:50;5.70;;;2.67;;
773;SDS011;370;48.810;9.150;2023-07-08T08:30:17;4.57;;;2.93;;
773;SDS011;370;48.810;9.150;2023-07-08T08:32:44;5.93;;;3.07;;
773;SDS011;370;48.810;9.150;2023-07-08T08:35:11;6.50;;;2.90;;
773;SDS011;370;48.810;9.150;2023-07-08T08:37:38;4.50;;;2.90;;
773;SDS011;370;48.810;9.150;2023-07-08T08:40:05;6.50;;;3.10;;
773;SDS011;370;48.810;9.150;2023-07-08T08:42:40;5.33;;;3.20;;
773;SDS011;370;48.810;9.150;2023-07-08T08:45:11;27.60;;;8.93;;
773;SDS011;370;48.810;9.150;2023-07-08T08:47:41;19.70;;;6.70;;
773;SDS011;370;48.810;9.150;2023-07-08T08:50:16;23.30;;;8.37;;
773;SDS011;370;48.810;9.150;2023-07-08T08:52:52;17.50;;;7.50;;
773;SDS011;370;48.810;9.150;2023-07-08T08:55:20;13.00;;;5.67;;
773;SDS011;370;48.810;9.150;2023-07-08T08:57:52;10.00;;;4.40;;
773;SDS011;370;48.810;9.150;2023-07-08T09:00:28;6.03;;;2.40;;
773;SDS011;370;48.810;9.150;2023-07-08T09:02:59;4.53;;;2.20;;
773;SDS011;370;48.810;9.150;2023-07-08T09:05:30;4.20;;;2.40;;
773;SDS011;370;48.810;9.150;2023-07-08T09:08:00;4.40;;;2.33;;
773;SDS011;370;48.810;9.150;2023-07-08T09:10:34;6.10;;;2.83;;
773;SDS011;370;48.810;9.150;2023-07-08T09:13:21;6.80;;;2.90;;
773;SDS011;370;48.810;9.150;2023-07-08T09:15:54;6.77;;;3.77;;
773;SDS011;370;48.810;9.150;2023-07-08T09:18:27;4.27;;;2.90;;
773;SDS011;370;48.810;9.150;2023-07-08T09:21:00;2.73;;;2.50;;
773;SDS011;370;48.810;9.150;2023-07-08T09:23:37;9.80;;;3.10;;
773;SDS011;370;48.810;9.150;2023-07-08T09:26:05;2.73;;;2.13;;
773;SDS011;370;48.810;9.150;2023-07-08T09:28:37;4.80;;;2.50;;
773;SDS011;370;48.810;9.150;2023-07-08T09:31:05;3.03;;;2.33;;
773;SDS011;370;48.810;9.150;2023-07-08T09:33:36;3.37;;;2.50;;
773;SDS011;370;48.810;9.150;2023-07-08T09:36:06;3.40;;;2.60;;
773;SDS011;370;48.810;9.150;2023-07-08T09:38:44;4.40;;;2.40;;
773;SDS011;370;48.810;9.150;2023-07-08T09:41:13;2.70;;;2.47;;
773;SDS011;370;48.810;9.150;2023-07-08T09:43:44;5.07;;;3.07;;
773;SDS011;370;48.810;9.150;2023-07-08T09:46:11;3.73;;;2.37;;
773;SDS011;370;48.810;9.150;2023-07-08T09:48:40;4.40;;;2.43;;
773;SDS011;370;48.810;9.150;2023-07-08T09:51:07;4.43;;;2.33;;
773;SDS011;370;48.810;9.150;2023-07-08T09:53:35;4.27;;;2.90;;
773;SDS011;370;48.810;9.150;2023-07-08T09:56:02;2.47;;;2.13;;
773;SDS011;370;48.810;9.150;2023-07-08T09:58:31;3.00;;;2.10;;
773;SDS011;370;48.810;9.150;2023-07-08T10:01:10;5.97;;;2.20;;
773;SDS011;370;48.810;9.150;2023-07-08T10:03:38;3.30;;;2.17;;
773;SDS011;370;48.810;9.150;2023-07-08T10:08:53;4.60;;;2.07;;
773;SDS011;370;48.810;9.150;2023-07-08T10:11:22;7.20;;;2.20;;
773;SDS011;370;48.810;9.150;2023-07-08T10:13:53;5.40;;;2.50;;
773;SDS011;370;48.810;9.150;2023-07-08T10:16:24;3.27;;;2.50;;
773;SDS011;370;48.810;9.150;2023-07-08T10:18:53;4.63;;;2.90;;
773;SDS011;370;48.810;9.150;2023-07-08T10:21:22;3.57;;;2.40;;
773;SDS011;370;48.810;9.150;2023-07-08T10:24:10;4.77;;;2.67;;
773;SDS011;370;48.810;9.150;2023-07-08T10:26:49;3.53;;;2.40;;
773;SDS011;370;48.810;9.150;2023-07-08T10:29:23;4.57;;;2.80;;
773;SDS011;370;48.810;9.150;2023-07-08T10:31:59;5.50;;;2.77;;
773;SDS011;370;48.810;9.150;2023-07-08T10:34:36;6.07;;;2.97;;
773;SDS011;370;48.810;9.150;2023-07-08T10:37:10;3.87;;;2.70;;
773;SDS011;370;48.810;9.150;2023-07-08T10:39:54;16.20;;;3.83;;
773;SDS011;370;48.810;9.150;2023-07-08T10:42:32;2.83;;;2.73;;
773;SDS011;370;48.810;9.150;2023-07-08T10:45:15;3.70;;;2.70;;
773;SDS011;370;48.810;9.150;2023-07-08T10:47:53;5.00;;;2.90;;
773;SDS011;370;48.810;9.150;2023-07-08T10:50:35;6.33;;;3.40;;
773;SDS011;370;48.810;9.150;2023-07-08T10:53:17;5.73;;;3.13;;
773;SDS011;370;48.810;9.150;2023-07-08T10:56:03;6.03;;;3.40;;
773;SDS011;370;48.810;9.150;2023-07-08T10:58:45;5.57;;;3.30;;
773;SDS011;370;48.810;9.150;2023-07-08T11:01:34;4.57;;;3.30;;
773;SDS011;370;48.810;9.150;2023-07-08T11:04:16;3.70;;;3.03;;
773;SDS011;370;48.810;9.150;2023-07-08T11:06:59;6.47;;;3.40;;
773;SDS011;370;48.810;9.150;2023-07-08T11:09:35;4.77;;;3.30;;
773;SDS011;370;48.810;9.150;2023-07-08T11:12:08;3.77;;;2.83;;
773;SDS011;370;48.810;9.150;2023-07-08T11:14:46;4.37;;;3.70;;
773;SDS011;370;48.810;9.150;2023-07-08T11:17:19;5.00;;;3.57;;
773;SDS011;370;48.810;9.150;2023-07-08T11:19:53;5.30;;;3.30;;
773;SDS011;370;48.810;9.150;2023-07-08T11:22:25;3.87;;;2.70;;
773;SDS011;370;48.810;9.150;2023-07-08T11:24:53;9.00;;;3.20;;
773;SDS011;370;48.810;9.150;2023-07-08T11:27:24;4.57;;;3.00;;
773;SDS011;370;48.810;9.150;2023-07-08T11:29:54;8.00;;;3.40;;
773;SDS011;370;48.810;9.150;2023-07-08T11:32:25;5.63;;;3.03;;
773;SDS011;370;48.810;9.150;2023-07-08T11:34:55;6.47;;;3.00;;
773;SDS011;370;48.810;9.150;2023-07-08T11:37:24;4.50;;;2.73;;
773;SDS011;370;48.810;9.150;2023-07-08T11:39:53;5.80;;;3.00;;
773;SDS011;370;48.810;9.150;2023-07-08T11:42:22;3.60;;;2.60;;
773;SDS011;370;48.810;9.150;2023-07-08T11:44:52;5.00;;;3.27;;
773;SDS011;370;48.810;9.150;2023-07-08T11:47:25;3.60;;;2.83;;
773;SDS011;370;48.810;9.150;2023-07-08T11:49:59;8.93;;;3.37;;
773;SDS011;370;48.810;9.150;2023-07-08T11:52:27;9.03;;;2.67;;
773;SDS011;370;48.810;9.150;2023-07-08T11:54:56;8.10;;;3.40;;
773;SDS011;370;48.810;9.150;2023-07-08T11:57:28;5.53;;;3.20;;
773;SDS011;370;48.810;9.150;2023-07-08T12:00:12;5.70;;;3.23;;
773;SDS011;370;48.810;9.150;2023-07-08T12:02:50;3.40;;;2.87;;
773;SDS011;370;48.810;9.150;2023-07-08T12:05:30;6.03;;;2.73;;
773;SDS011;370;48.810;9.150;2023-07-08T12:08:00;3.40;;;2.80;;
773;SDS011;370;48.810;9.150;2023-07-08T12:10:31;5.47;;;3.13;;
773;SDS011;370;48.810;9.150;2023-07-08T12:13:01;3.50;;;3.30;;
773;SDS011;370;48.810;9.150;2023-07-08T12:15:29;5.60;;;4.33;;
773;SDS011;370;48.810;9.150;2023-07-08T12:17:58;5.33;;;3.30;;
773;SDS011;370;48.810;9.150;2023-07-08T12:20:28;4.27;;;3.47;;
773;SDS011;370;48.810;9.150;2023-07-08T12:22:59;4.30;;;3.47;;
773;SDS011;370;48.810;9.150;2023-07-08T12:25:29;4.33;;;3.40;;
773;SDS011;370;48.810;9.150;2023-07-08T12:27:57;8.27;;;4.10;;
773;SDS011;370;48.810;9.150;2023-07-08T12:30:25;3.70;;;3.20;;
773;SDS011;370;48.810;9.150;2023-07-08T12:32:53;3.57;;;3.00;;
773;SDS011;370;48.810;9.150;2023-07-08T12:35:26;11.70;;;3.87;;
773;SDS011;370;48.810;9.150;2023-07-08T12:37:57;3.57;;;3.30;;
773;SDS011;370;48.810;9.150;2023-07-08T12:40:27;3.60;;;3.33;;
773;SDS011;370;48.810;9.150;2023-07-08T12:42:55;5.77;;;2.90;;
773;SDS011;370;48.810;9.150;2023-07-08T12:45:25;5.70;;;3.60;;
773;SDS011;370;48.810;9.150;2023-07-08T12:47:52;3.57;;;3.40;;
773;SDS011;370;48.810;9.150;2023-07-08T12:50:19;5.00;;;3.70;;
773;SDS011;370;48.810;9.150;2023-07-08T12:52:46;4.70;;;3.77;;
773;SDS011;370;48.810;9.150;2023-07-08T12:55:15;3.83;;;3.70;;
773;SDS011;370;48.810;9.150;2023-07-08T12:57:43;6.73;;;3.70;;
773;SDS011;370;48.810;9.150;2023-07-08T13:00:14;4.40;;;3.43;;
773;SDS011;370;48.810;9.150;2023-07-08T13:02:47;3.27;;;3.07;;
773;SDS011;370;48.810;9.150;2023-07-08T13:05:18;9.10;;;3.90;;
773;SDS011;370;48.810;9.150;2023-07-08T13:07:45;4.07;;;3.63;;
773;SDS011;370;48.810;9.150;2023-07-08T13:10:17;3.97;;;3.77;;
773;SDS011;370;48.810;9.150;2023-07-08T13:12:46;4.70;;;4.33;;
773;SDS011;370;48.810;9.150;2023-07-08T13:15:17;4.40;;;4.10;;
773;SDS011;370;48.810;9.150;2023-07-08T13:17:47;5.70;;;4.67;;
773;SDS011;370;48.810;9.150;2023-07-08T13:20:15;4.40;;;4.10;;
773;SDS011;370;48.810;9.150;2023-07-08T13:22:45;4.83;;;4.53;;
773;SDS011;370;48.810;9.150;2023-07-08T13:25:17;7.07;;;4.77;;
773;SDS011;370;48.810;9.150;2023-07-08T13:27:53;6.23;;;3.70;;
773;SDS011;370;48.810;9.150;2023-07-08T13:30:23;5.93;;;4.03;;
773;SDS011;370;48.810;9.150;2023-07-08T13:32:52;4.57;;;3.50;;
773;SDS011;370;48.810;9.150;2023-07-08T13:35:23;6.43;;;4.70;;
773;SDS011;370;48.810;9.150;2023-07-08T13:37:51;3.87;;;3.67;;
773;SDS011;370;48.810;9.150;2023-07-08T13:40:20;7.53;;;3.63;;
773;SDS011;370;48.810;9.150;2023-07-08T13:42:48;5.50;;;3.80;;
773;SDS011;370;48.810;9.150;2023-07-08T13:45:17;4.33;;;3.40;;
773;SDS011;370;48.810;9.150;2023-07-08T13:47:57;4.20;;;3.43;;
773;SDS011;370;48.810;9.150;2023-07-08T13:50:25;3.77;;;3.27;;
773;SDS011;370;48.810;9.150;2023-07-08T13:52:57;3.13;;;2.97;;
773;SDS011;370;48.810;9.150;2023-07-08T13:55:25;2.67;;;2.50;;
773;SDS011;370;48.810;9.150;2023-07-08T13:57:57;5.43;;;2.80;;
773;SDS011;370;48.810;9.150;2023-07-08T14:00:26;4.53;;;2.40;;
773;SDS011;370;48.810;9.150;2023-07-08T14:02:56;6.87;;;3.30;;
773;SDS011;370;48.810;9.150;2023-07-08T14:05:23;2.80;;;2.60;;
773;SDS011;370;48.810;9.150;2023-07-08T14:07:50;6.43;;;3.00;;
773;SDS011;370;48.810;9.150;2023-07-08T14:10:17;5.67;;;2.87;;
773;SDS011;370;48.810;9.150;2023-07-08T14:12:45;3.50;;;2.70;;
773;SDS011;370;48.810;9.150;2023-07-08T14:15:11;6.03;;;2.97;;
773;SDS011;370;48.810;9.150;2023-07-08T14:17:38;2.53;;;2.33;;
773;SDS011;370;48.810;9.150;2023-07-08T14:20:08;6.00;;;2.50;;
773;SDS011;370;48.810;9.150;2023-07-08T14:22:38;7.27;;;2.93;;
773;SDS011;370;48.810;9.150;2023-07-08T14:25:06;2.70;;;2.50;;
773;SDS011;370;48.810;9.150;2023-07-08T14:27:35;4.53;;;3.10;;
773;SDS011;370;48.810;9.150;2023-07-08T14:30:04;3.10;;;2.50;;
773;SDS011;370;48.810;9.150;2023-07-08T14:32:32;3.73;;;2.60;;
773;SDS011;370;48.810;9.150;2023-07-08T14:35:00;2.90;;;2.23;;
773;SDS011;370;48.810;9.150;2023-07-08T14:37:37;3.00;;;2.60;;
773;SDS011;370;48.810;9.150;2023-07-08T14:40:10;3.50;;;2.40;;
773;SDS011;370;48.810;9.150;2023-07-08T14:42:45;2.43;;;2.13;;
773;SDS011;370;48.810;9.150;2023-07-08T14:45:13;4.27;;;2.77;;
773;SDS011;370;48.810;9.150;2023-07-08T14:47:40;4.13;;;2.20;;
773;SDS011;370;48.810;9.150;2023-07-08T14:50:11;3.40;;;2.57;;
773;SDS011;370;48.810;9.150;2023-07-08T14:52:39;4.63;;;2.37;;
773;SDS011;370;48.810;9.150;2023-07-08T14:55:07;3.37;;;2.20;;
773;SDS011;370;48.810;9.150;2023-07-08T14:57:45;4.67;;;2.37;;
773;SDS011;370;48.810;9.150;2023-07-08T15:00:16;4.67;;;2.50;;
773;SDS011;370;48.810;9.150;2023-07-08T15:02:45;5.20;;;2.93;;
773;SDS011;370;48.810;9.150;2023-07-08T15:05:14;3.60;;;2.40;;
773;SDS011;370;48.810;9.150;2023-07-08T15:07:43;3.17;;;2.50;;
773;SDS011;370;48.810;9.150;2023-07-08T15:10:10;3.70;;;2.30;;
773;SDS011;370;48.810;9.150;2023-07-08T15:12:37;6.50;;;3.40;;
773;SDS011;370;48.810;9.150;2023-07-08T15:15:04;2.87;;;2.33;;
773;SDS011;370;48.810;9.150;2023-07-08T15:17:40;3.00;;;2.57;;
773;SDS011;370;48.810;9.150;2023-07-08T15:20:09;5.43;;;2.70;;
773;SDS011;370;48.810;9.150;2023-07-08T15:22:39;4.27;;;2.53;;
773;SDS011;370;48.810;9.150;2023-07-08T15:25:06;4.77;;;2.80;;
773;SDS011;370;48.810;9.150;2023-07-08T15:27:34;5.63;;;2.90;;
773;SDS011;370;48.810;9.150;2023-07-08T15:30:01;5.67;;;2.70;;
773;SDS011;370;48.810;9.150;2023-07-08T15:32:28;5.80;;;2.90;;
773;SDS011;370;48.810;9.150;2023-07-08T15:34:56;4.33;;;3.10;;
773;SDS011;370;48.810;9.150;2023-07-08T15:37:23;4.30;;;2.70;;
773;SDS011;370;48.810;9.150;2023-07-08T15:39:50;4.23;;;3.17;;
773;SDS011;370;48.810;9.150;2023-07-08T15:42:16;9.27;;;3.57;;
773;SDS011;370;48.810;9.150;2023-07-08T15:44:43;5.43;;;3.73;;
773;SDS011;370;48.810;9.150;2023-07-08T15:47:16;6.53;;;3.37;;
773;SDS011;370;48.810;9.150;2023-07-08T15:49:43;7.70;;;4.87;;
773;SDS011;370;48.810;9.150;2023-07-08T15:52:11;4.63;;;2.93;;
773;SDS011;370;48.810;9.150;2023-07-08T15:54:38;4.77;;;3.40;;
773;SDS011;370;48.810;9.150;2023-07-08T15:57:05;6.27;;;3.10;;
773;SDS011;370;48.810;9.150;2023-07-08T15:59:34;2.90;;;2.37;;
773;SDS011;370;48.810;9.150;2023-07-08T16:02:03;5.60;;;3.50;;
773;SDS011;370;48.810;9.150;2023-07-08T16:04:39;8.50;;;3.40;;
773;SDS011;370;48.810;9.150;2023-07-08T16:07:07;7.83;;;2.83;;
773;SDS011;370;48.810;9.150;2023-07-08T16:09:36;5.70;;;3.10;;